Flight Track Log - Related Links

Times and Time Zones

All times are in EDT time to prevent confusion due to time zone crossing. See the N569SC flight status page for this flight to view local times or setup timezone preferences in your user account.

Time Position Orientation Groundspeed Altitude Reporting Facility
EDT Latitude Longitude Course Direction KTS MPH feet Rate Location/Type
Sun 12:05:18 PM 33.4936 -93.9636 23° Northeast 418 481 3,400  Level Fort Worth Center
Sun 12:06:18 PM 33.5553 -93.9264 27° Northeast 326 375 5,600 1,300 Climbing Fort Worth Center
Sun 12:07:18 PM 33.6147 -93.8892 28° Northeast 278 320 6,000 200 Climbing Fort Worth Center
Sun 12:08:18 PM 33.6783 -93.8492 28° Northeast 251 289 6,000 50 Level Fort Worth Center
Sun 12:09:18 PM 33.7378 -93.8092 29° Northeast 246 283 6,100 2,393 Climbing Fort Worth Center
Sun 12:10:00 PM 33.9895 -93.6302 23° Northeast  Level FlightAware Approximate
Sun 12:11:21 PM 33.8664 -93.7269 28° Northeast 249 287 13,300  Level Memphis Center
Sun 12:12:21 PM 33.9408 -93.6822 26° Northeast 264 304 15,900 2,600 Climbing Memphis Center
Sun 12:13:21 PM 34.0214 -93.6275 29° Northeast 296 341 18,500 2,650 Climbing Memphis Center
Sun 12:14:21 PM 34.1086 -93.5708 28° Northeast 326 375 21,200 2,750 Climbing Memphis Center
Sun 12:15:21 PM 34.1975 -93.5139 28° Northeast 347 399 24,000 2,750 Climbing Memphis Center
Sun 12:16:21 PM 34.2867 -93.4567 28° Northeast 354 407 26,700 2,500 Climbing Memphis Center
Sun 12:17:21 PM 34.3842 -93.3897 30° Northeast 359 413 29,000 2,100 Climbing Memphis Center
Sun 12:18:21 PM 34.4797 -93.3253 29° Northeast 369 425 30,900 1,400 Climbing Memphis Center
Sun 12:19:21 PM 34.5772 -93.2631 28° Northeast 380 437 31,800 1,300 Climbing Memphis Center
Sun 12:20:21 PM 34.6789 -93.1931 30° Northeast 398 458 33,500 1,700 Climbing Memphis Center
Sun 12:21:21 PM 34.7825 -93.1283 27° Northeast 410 472 35,200 1,750 Climbing Memphis Center
Sun 12:22:21 PM 34.8844 -93.0583 29° Northeast 410 472 37,000 1,800 Climbing Memphis Center
Sun 12:23:21 PM 34.9839 -92.9931 28° Northeast 410 472 38,800 1,650 Climbing Memphis Center
Sun 12:24:21 PM 35.0833 -92.9250 29° Northeast 410 472 40,300 1,300 Climbing Memphis Center
Sun 12:25:21 PM 35.1719 -92.8719 26° Northeast 399 459 41,400 800 Climbing Memphis Center
Sun 12:26:21 PM 35.2692 -92.8061 29° Northeast 394 453 41,900 400 Climbing Memphis Center
Sun 12:27:21 PM 35.3686 -92.7403 28° Northeast 399 459 42,200 300 Climbing Memphis Center
Sun 12:28:21 PM 35.4681 -92.6642 32° Northeast 412 474 42,500 350 Climbing Memphis Center
Sun 12:29:21 PM 35.5714 -92.5956 28° Northeast 412 474 42,900 450 Climbing Memphis Center
Sun 12:30:21 PM 35.6728 -92.5267 29° Northeast 412 474 43,400 550 Climbing Memphis Center
Sun 12:31:21 PM 35.7781 -92.4578 28° Northeast 417 480 44,000 550 Climbing Memphis Center
Sun 12:32:21 PM 35.8794 -92.3886 29° Northeast 417 480 44,500 500 Climbing Memphis Center
Sun 12:33:21 PM 35.9786 -92.3219 29° Northeast 417 480 45,000 250 Climbing Memphis Center
Sun 12:34:21 PM 36.0756 -92.2522 30° Northeast 407 468 45,000  Level Memphis Center
Sun 12:35:21 PM 36.1744 -92.1878 28° Northeast 401 461 45,000  Level Memphis Center
Sun 12:36:21 PM 36.2733 -92.1178 30° Northeast 401 461 45,000  Level Memphis Center
Sun 12:37:21 PM 36.3722 -92.0531 28° Northeast 401 461 45,000  Level Memphis Center
Sun 12:38:21 PM 36.4714 -91.9800 31° Northeast 401 461 45,000  Level Memphis Center
Sun 12:39:21 PM 36.5783 -91.9072 29° Northeast 401 461 45,000  Level Memphis Center
Sun 12:41:41 PM 36.7928 -91.7528 30° Northeast 406 467 45,000  Level Kansas City Center
Sun 12:42:43 PM 36.9108 -91.6719 29° Northeast 403 464 45,000  Level Kansas City Center
Sun 12:43:45 PM 37.0078 -91.6031 30° Northeast 400 460 45,000  Level Kansas City Center
Sun 12:44:46 PM 37.1069 -91.5328 29° Northeast 405 466 45,000  Level Kansas City Center
Sun 12:45:48 PM 37.2142 -91.5372 358° North 401 461 45,000  Level Kansas City Center
Sun 12:46:50 PM 37.3156 -91.5814 341° North 392 451 45,000  Level Kansas City Center
Sun 12:47:52 PM 37.4192 -91.6233 342° North 391 450 45,000  Level Kansas City Center
Sun 12:48:54 PM 37.5228 -91.6633 343° North 389 448 45,000  Level Kansas City Center
Sun 12:49:56 PM 37.6497 -91.7078 345° North 391 450 45,000  Level Kansas City Center
Sun 12:50:58 PM 37.7589 -91.6878 North 409 471 45,000  Level Kansas City Center
Sun 12:52:00 PM 37.8606 -91.6267 25° Northeast 408 470 45,000  Level Kansas City Center
Sun 12:53:02 PM 37.9639 -91.5622 26° Northeast 409 471 45,000  Level Kansas City Center
Sun 12:54:03 PM 38.0681 -91.4983 26° Northeast 414 476 45,000  Level Kansas City Center
Sun 12:55:05 PM 38.1719 -91.4339 26° Northeast 415 478 45,000  Level Kansas City Center
Sun 12:56:07 PM 38.2731 -91.3689 27° Northeast 411 473 45,000  Level Kansas City Center
Sun 12:57:09 PM 38.3775 -91.3042 26° Northeast 413 475 45,000  Level Kansas City Center
Sun 12:58:11 PM 38.5019 -91.2258 26° Northeast 414 476 45,000  Level Kansas City Center
Sun 12:59:13 PM 38.6061 -91.1594 26° Northeast 416 479 45,000  Level Kansas City Center
Sun 01:00:15 PM 38.7108 -91.0942 26° Northeast 416 479 45,000  Level Kansas City Center
Sun 01:01:17 PM 38.8158 -91.0261 27° Northeast 418 481 45,000  Level Kansas City Center
Sun 01:02:19 PM 38.9203 -90.9583 27° Northeast 418 481 45,000 -97 Level Kansas City Center
Sun 01:03:21 PM 39.0261 -90.8908 26° Northeast 420 483 44,800 -774 Descending Kansas City Center
Sun 01:04:23 PM 39.1344 -90.8228 26° Northeast 426 490 43,400 -1,500 Descending Kansas City Center
Sun 01:05:25 PM 39.2692 -90.7347 27° Northeast 445 512 41,700 -1,452 Descending Kansas City Center
Sun 01:06:27 PM 39.3828 -90.6592 27° Northeast 454 522 40,400 -1,306 Descending Kansas City Center
Sun 01:07:29 PM 39.4928 -90.5861 27° Northeast 451 519 39,000 -1,355 Descending Kansas City Center
Sun 01:08:31 PM 39.6056 -90.5678 North 427 491 37,600 -1,403 Descending Kansas City Center
Sun 01:09:33 PM 39.7150 -90.5614 North 404 465 36,100 -1,403 Descending Kansas City Center
Sun 01:10:35 PM 39.8203 -90.5544 North 385 443 34,700 -1,355 Descending Kansas City Center
Sun 01:11:37 PM 39.9222 -90.5539 360° North 369 425 33,300 -1,500 Descending Kansas City Center
Sun 01:12:39 PM 40.0264 -90.4944 24° Northeast 353 406 31,600 -1,113 Descending Kansas City Center
Sun 01:13:41 PM 40.0992 -90.4161 39° Northeast 343 395 31,000 -396 Descending Kansas City Center
Sun 01:14:10 PM 40.1269 -90.3836 42° Northeast 341 392 31,000  Level Chicago Center
Sun 01:15:11 PM 40.2006 -90.3064 39° Northeast 339 390 31,000  Level Chicago Center
Sun 01:16:13 PM 40.2758 -90.2264 39° Northeast 346 398 31,000  Level Chicago Center
Sun 01:17:15 PM 40.3683 -90.1272 39° Northeast 355 409 31,000 -532 Level Chicago Center
Sun 01:18:17 PM 40.4456 -90.0453 39° Northeast 357 411 29,900 -1,355 Descending Chicago Center
Sun 01:19:19 PM 40.5217 -89.9642 39° Northeast 356 410 28,200 -1,694 Descending Chicago Center
Sun 01:20:21 PM 40.5944 -89.8850 40° Northeast 347 399 26,400 -1,707 Descending Chicago Center
Sun 01:21:22 PM 40.6672 -89.8031 40° Northeast 344 396 24,700 -1,659 Descending Chicago Center
Sun 01:22:24 PM 40.7219 -89.6975 56° Northeast 357 411 23,000 -1,839 Descending Chicago Center
Sun 01:23:26 PM 40.7781 -89.5669 60° Northeast 345 397 20,900 -1,887 Descending Chicago Center
Sun 01:24:28 PM 40.8222 -89.4653 60° Northeast 339 390 19,100 -1,742 Descending Chicago Center
Sun 01:25:30 PM 40.8669 -89.3600 61° Northeast 332 382 17,300 -1,016 Descending Chicago Center
Sun 01:26:32 PM 40.9083 -89.2644 60° Northeast 303 349 17,000 -726 Descending Chicago Center
Sun 01:27:34 PM 40.9547 -89.1875 51° Northeast 274 315 15,800 -1,403 Descending Chicago Center
Sun 01:28:36 PM 41.0178 -89.0983 47° Northeast 273 314 14,100 -1,548 Descending Chicago Center
Sun 01:29:38 PM 41.0722 -89.0192 48° Northeast 291 335 12,600 -1,403 Descending Chicago Center
Sun 01:30:40 PM 41.1292 -88.9361 48° Northeast 304 350 11,200 -1,415 Descending Chicago Center
Sun 01:31:41 PM 41.1842 -88.8542 48° Northeast 302 348 9,700 -1,415 Descending Chicago Center
Sun 01:32:43 PM 41.2397 -88.7728 48° Northeast 299 344 8,300 -1,355 Descending Chicago Center
Sun 01:33:45 PM 41.2911 -88.6967 48° Northeast 291 335 6,900 -1,113 Descending Chicago Center
Sun 01:34:47 PM 41.3503 -88.6108 47° Northeast 275 316 6,000 -435 Descending Chicago Center
Sun 01:35:49 PM 41.3925 -88.5383 52° Northeast 261 300 6,000  Level Chicago Center
Sun 01:36:51 PM 41.4236 -88.4569 63° Northeast 252 290 6,000  Level Chicago Center
Sun 01:37:53 PM 41.4592 -88.3753 60° Northeast 252 290 6,000  Level Chicago Center
Sun 01:38:55 PM 41.4942 -88.2939 60° Northeast 253 291 6,000 -484 Level Chicago Center
Sun 01:39:57 PM 41.5292 -88.2103 61° Northeast 255 293 5,000 -968 Descending Chicago Center
Sun 01:40:59 PM 41.5664 -88.1231 60° Northeast 262 302 4,000 -484 Descending Chicago Center
Sun 01:42:01 PM 41.6044 -88.0336 60° Northeast 268 308 4,000  Level Chicago Center
Sun 01:43:03 PM 41.6450 -87.9383 60° Northeast 252 290 4,000 -195 Level Chicago Center
Sun 01:44:04 PM 41.6781 -87.8867 49° Northeast 209 241 3,600 -683 Descending Chicago Center
Sun 01:45:06 PM 41.7114 -87.8453 43° Northeast 181 208 2,600 -939 Descending Chicago Center
Sun 01:45:59 PM 41.7333 -87.8000 57° Northeast 150 173 1,800 -850 Descending Chicago TRACON
Sun 01:46:59 PM 41.7667 -87.7667 37° Northeast 126 145 1,000 -800 Descending Chicago TRACON

Login

Don't have an account? Register now (free) for customized features, flight alerts, and more!